Prairie Home, Missouri
Current Conditions -  °F | °C
As of 11:35 PM on Wednesday 22 Oct 2014 (Local Time) from KVER Reporting Station
Haze Haze  
Wind Chill: 51°   Ceiling: Unl
Heat Index: 51°   Visibility: 2.5mi
Dew Point: 42°   Wind: 7mph
Humidity: 72%   Direction: 130°SE
Pressure: 30.17"   Gusts: NA
Location:  38.81°N, 92.59°W
Report Text: KVER 230435Z AUTO 13006KT 2 1/2SM HZ CLR 11/06 A3017 RMK AO2 T01070058
Loading
Personal Weather Stations






























Interactive Weather Map
Tropical Storm Tracking
New forecast layout! Learn more

10-Day Weather Forecast

Advertisements
Track Severe Weather on mobile